Time;durP1;ratioP1;P1;durP2;ratioP2;P2;SDS_P1;SDS_P2;PMS_P1;PMS_P2;Temp;Humidity;BMP_temperature;BMP_pressure;BME280_temperature;BME280_humidity;BME280_pressure;Samples;Min_cycle;Max_cycle;Signal;HPM_P1;HPM_P2
2021/01/09 00:01:38;;;;;;;43.45;19.35;;;;;;;-0.58;89.59;99279.63;3469134;28;20057;-46
2021/01/09 00:03:23;;;;;;;45.70;20.67;;;;;;;-0.57;89.92;99295.78;3469422;28;20080;-46
2021/01/09 00:05:06;;;;;;;44.17;20.02;;;;;;;-0.56;89.72;99287.34;3470463;28;20157;-45
2021/01/09 00:06:50;;;;;;;44.22;20.15;;;;;;;-0.56;90.07;99287.34;3469507;28;20053;-46
2021/01/09 00:08:31;;;;;;;40.10;18.77;;;;;;;-0.56;89.91;99288.22;3469267;28;20053;-46
2021/01/09 00:10:15;;;;;;;49.45;21.02;;;;;;;-0.57;89.92;99288.13;3470794;28;20111;-49
2021/01/09 00:11:57;;;;;;;47.55;20.33;;;;;;;-0.55;89.67;99278.94;3469985;28;20057;-48
2021/01/09 00:13:39;;;;;;;44.63;21.73;;;;;;;-0.56;89.83;99284.81;3470825;28;20407;-47
2021/01/09 00:15:20;;;;;;;44.50;19.92;;;;;;;-0.56;89.98;99284.81;3470014;28;20053;-44
2021/01/09 00:17:02;;;;;;;46.15;20.52;;;;;;;-0.55;90.24;99292.53;3469627;28;20072;-47
2021/01/09 00:18:44;;;;;;;43.15;20.08;;;;;;;-0.56;89.96;99285.69;3470379;28;20176;-46
2021/01/09 00:20:26;;;;;;;35.78;15.98;;;;;;;-0.56;90.10;99280.59;3468613;28;20053;-46
2021/01/09 00:22:09;;;;;;;43.47;19.58;;;;;;;-0.56;90.17;99285.69;3468745;28;20503;-47
2021/01/09 00:23:50;;;;;;;42.80;19.17;;;;;;;-0.55;89.85;99284.03;3470028;28;20065;-47
2021/01/09 00:25:32;;;;;;;40.08;18.48;;;;;;;-0.56;89.95;99288.22;3469567;28;20072;-48
2021/01/09 00:27:14;;;;;;;39.70;18.77;;;;;;;-0.57;89.79;99281.41;3468958;28;20053;-48
2021/01/09 00:28:55;;;;;;;45.38;21.10;;;;;;;-0.55;90.13;99289.13;3470788;28;20056;-47
2021/01/09 00:30:36;;;;;;;45.38;19.77;;;;;;;-0.55;90.23;99286.56;3469000;28;20053;-46
2021/01/09 00:32:18;;;;;;;38.28;18.42;;;;;;;-0.56;90.16;99285.69;3469524;28;20053;-46
2021/01/09 00:34:00;;;;;;;44.47;19.23;;;;;;;-0.56;90.22;99288.22;3469108;28;20407;-48
2021/01/09 00:35:42;;;;;;;46.63;21.20;;;;;;;-0.57;90.34;99286.50;3469026;28;20041;-46
2021/01/09 00:37:25;;;;;;;43.15;20.33;;;;;;;-0.57;90.24;99288.13;3469987;28;20053;-48
2021/01/09 00:39:07;;;;;;;;;;;;;;;-0.56;90.13;99287.34;3456929;28;20064;-46
2021/01/09 00:40:49;;;;;;;46.28;20.08;;;;;;;-0.57;90.56;99286.50;3465792;28;19925;-47
2021/01/09 00:42:31;;;;;;;44.88;19.38;;;;;;;-0.57;90.36;99290.69;3468862;28;20041;-48
2021/01/09 00:44:13;;;;;;;43.15;19.85;;;;;;;-0.56;90.31;99287.34;3469608;28;20057;-46
2021/01/09 00:45:54;;;;;;;44.10;20.70;;;;;;;-0.55;90.42;99286.56;3468978;28;20577;-47
2021/01/09 00:47:36;;;;;;;34.97;15.70;;;;;;;-0.56;90.39;99292.44;3469661;28;20060;-47
2021/01/09 00:49:19;;;;;;;46.55;20.63;;;;;;;-0.55;90.43;99295.09;3469085;28;20083;-47
2021/01/09 00:51:00;;;;;;;45.40;19.58;;;;;;;-0.55;90.76;99295.09;3469208;28;20053;-46
2021/01/09 00:52:43;;;;;;;45.70;19.77;;;;;;;-0.55;90.36;99286.56;3456541;28;20050;-47
2021/01/09 00:54:24;;;;;;;40.78;18.42;;;;;;;-0.55;90.42;99289.13;3466121;28;20061;-49
2021/01/09 00:56:07;;;;;;;44.20;20.70;;;;;;;-0.55;90.44;99286.56;3469372;28;20053;-46
2021/01/09 00:57:49;;;;;;;44.22;19.70;;;;;;;-0.56;90.67;99283.13;3470712;28;20046;-46
2021/01/09 00:59:31;;;;;;;39.38;18.05;;;;;;;-0.56;90.54;99280.59;3468626;28;20092;-46
2021/01/09 01:01:16;;;;;;;45.40;21.35;;;;;;;-0.55;90.67;99274.69;3469730;28;20148;-48
2021/01/09 01:03:00;;;;;;;40.50;18.90;;;;;;;-0.55;90.68;99269.59;3468601;28;20060;-47
2021/01/09 01:04:42;;;;;;;42.53;20.10;;;;;;;-0.55;90.54;99269.59;3469280;28;20051;-46
2021/01/09 01:06:23;;;;;;;45.25;20.92;;;;;;;-0.54;90.76;99271.34;3469697;28;20414;-47
2021/01/09 01:08:06;;;;;;;46.03;19.95;;;;;;;-0.54;90.57;99270.47;3469261;28;20520;-48
2021/01/09 01:09:47;;;;;;;30.83;15.35;;;;;;;-0.54;90.53;99268.78;3469153;28;20046;-47
2021/01/09 01:11:31;;;;;;;37.85;17.75;;;;;;;-0.53;90.79;99269.69;3469264;28;20608;-46
2021/01/09 01:13:13;;;;;;;47.15;21.58;;;;;;;-0.53;90.62;99262.03;3461347;28;20510;-47
2021/01/09 01:14:55;;;;;;;41.90;18.63;;;;;;;-0.54;90.66;99263.69;3460142;28;20046;-46
2021/01/09 01:16:36;;;;;;;42.88;19.98;;;;;;;-0.53;90.60;99268.00;3469882;28;20053;-48
2021/01/09 01:18:22;;;;;;;48.70;21.52;;;;;;;-0.55;90.86;99261.97;3469255;28;20041;-46
2021/01/09 01:20:04;;;;;;;48.75;20.92;;;;;;;-0.53;90.65;99269.69;3468746;28;20525;-48
2021/01/09 01:21:46;;;;;;;45.70;21.77;;;;;;;-0.53;91.01;99264.59;3469688;28;20041;-47
2021/01/09 01:23:28;;;;;;;43.00;19.58;;;;;;;-0.53;90.96;99262.91;3469110;28;20053;-46
2021/01/09 01:25:11;;;;;;;43.40;19.77;;;;;;;-0.51;91.11;99264.69;3481282;28;20053;-47
2021/01/09 01:26:53;;;;;;;44.50;19.52;;;;;;;-0.53;90.91;99262.91;3468257;28;20118;-48
2021/01/09 01:28:36;;;;;;;41.85;18.35;;;;;;;-0.51;91.00;99262.13;3469133;28;20041;-46
2021/01/09 01:30:18;;;;;;;45.10;21.42;;;;;;;-0.51;91.32;99262.13;3469552;28;20057;-46
2021/01/09 01:32:00;;;;;;;52.28;21.90;;;;;;;-0.51;90.92;99259.59;3468677;28;20053;-48
2021/01/09 01:33:42;;;;;;;53.20;21.33;;;;;;;-0.50;91.09;99261.31;3469307;28;20058;-46
2021/01/09 01:35:24;;;;;;;43.75;15.68;;;;;;;-0.50;91.09;99258.75;3469192;28;20056;-46
2021/01/09 01:37:08;;;;;;;37.38;18.63;;;;;;;-0.53;91.16;99255.28;3468565;28;20414;-46
2021/01/09 01:38:51;;;;;;;42.58;18.60;;;;;;;-0.51;91.30;99257.03;3469582;28;20053;-46
2021/01/09 01:40:32;;;;;;;41.85;19.52;;;;;;;-0.49;91.02;99260.53;3468355;28;20183;-46
2021/01/09 01:42:14;;;;;;;32.13;14.43;;;;;;;-0.50;91.13;99259.66;3467031;28;20560;-48
2021/01/09 01:43:55;;;;;;;43.08;20.02;;;;;;;-0.50;91.04;99252.03;3469369;28;20294;-46
2021/01/09 01:45:38;;;;;;;43.67;20.70;;;;;;;-0.51;91.51;99249.38;3468261;28;20073;-48
2021/01/09 01:47:21;;;;;;;49.40;20.45;;;;;;;-0.49;91.12;99252.88;3468723;28;20059;-48
2021/01/09 01:49:03;;;;;;;50.53;21.52;;;;;;;-0.49;91.05;99248.66;3469241;28;20504;-48
2021/01/09 01:50:45;;;;;;;42.78;20.45;;;;;;;-0.49;91.12;99250.34;3468093;28;20435;-48
2021/01/09 01:52:27;;;;;;;47.72;21.25;;;;;;;-0.48;91.46;99246.97;3469219;28;20060;-46
2021/01/09 01:54:09;;;;;;;45.20;20.67;;;;;;;-0.47;91.73;99248.75;3469435;28;20053;-46
2021/01/09 01:55:51;;;;;;;49.53;22.58;;;;;;;-0.48;91.63;99244.44;3468203;28;20103;-46
2021/01/09 01:57:34;;;;;;;41.80;20.10;;;;;;;-0.47;91.46;99251.28;3468933;28;20076;-46
2021/01/09 01:59:16;;;;;;;53.55;24.08;;;;;;;-0.47;91.43;99249.59;3468832;28;20499;-46
2021/01/09 02:00:58;;;;;;;52.65;22.30;;;;;;;-0.46;91.38;99243.72;3468530;28;20049;-46
2021/01/09 02:02:40;;;;;;;46.30;20.52;;;;;;;-0.46;91.38;99245.41;3468676;28;20053;-46
2021/01/09 02:04:21;;;;;;;46.00;20.25;;;;;;;-0.47;91.47;99244.50;3468503;28;20049;-48
2021/01/09 02:06:08;;;;;;;43.45;21.13;;;;;;;-0.46;91.45;99245.41;3467895;28;20064;-47
2021/01/09 02:07:54;;;;;;;47.67;21.10;;;;;;;-0.47;91.28;99233.44;3469210;28;20053;-47
2021/01/09 02:09:41;;;;;;;38.83;16.27;;;;;;;-0.47;91.37;99244.50;3467898;28;20119;-46
2021/01/09 02:11:32;;;;;;;52.35;23.98;;;;;;;-0.46;91.45;99237.75;3467976;28;20057;-46
2021/01/09 02:13:21;;;;;;;45.78;20.88;;;;;;;-0.46;91.50;99237.75;3469098;28;20053;-47
2021/01/09 02:15:04;;;;;;;42.20;18.55;;;;;;;-0.46;91.37;99232.66;3468085;28;20572;-47
2021/01/09 02:16:47;;;;;;;42.28;19.10;;;;;;;-0.45;91.36;99242.03;3467746;28;20056;-47
2021/01/09 02:18:33;;;;;;;37.08;18.85;;;;;;;-0.45;91.52;99234.41;3468635;28;20053;-47
2021/01/09 02:20:15;;;;;;;37.92;16.10;;;;;;;-0.45;91.50;99235.25;3467985;28;20049;-47
2021/01/09 02:21:59;;;;;;;54.42;21.75;;;;;;;-0.44;91.53;99239.56;3467453;28;20056;-48
2021/01/09 02:23:42;;;;;;;57.58;24.40;;;;;;;-0.44;91.59;99238.72;3480929;28;20509;-46
2021/01/09 02:25:23;;;;;;;43.17;19.98;;;;;;;-0.43;91.42;99235.34;3472318;28;20053;-47
2021/01/09 02:27:06;;;;;;;49.00;22.77;;;;;;;-0.44;91.58;99241.25;3469320;28;20519;-48
2021/01/09 02:28:51;;;;;;;41.90;18.13;;;;;;;-0.43;91.47;99233.69;3468095;28;20144;-48
2021/01/09 02:30:38;;;;;;;49.58;21.15;;;;;;;-0.43;91.45;99227.69;3467803;28;20053;-49
2021/01/09 02:32:27;;;;;;;52.10;22.25;;;;;;;-0.42;91.70;99230.31;3468879;28;20096;-47
2021/01/09 02:34:11;;;;;;;49.22;22.25;;;;;;;-0.40;91.49;99225.31;3467563;28;20049;-46
2021/01/09 02:35:54;;;;;;;60.17;25.10;;;;;;;-0.41;91.85;99227.00;3466687;28;20057;-46
2021/01/09 02:37:36;;;;;;;53.78;23.60;;;;;;;-0.40;91.67;99230.41;3469504;28;20144;-48
2021/01/09 02:39:18;;;;;;;55.88;24.02;;;;;;;-0.41;91.80;99227.00;3467591;28;20045;-47
2021/01/09 02:41:03;;;;;;;57.22;24.38;;;;;;;-0.40;91.72;99226.19;3467545;28;20088;-46
2021/01/09 02:42:45;;;;;;;37.15;16.98;;;;;;;-0.39;91.59;99221.97;3467092;28;20053;-46
2021/01/09 02:44:27;;;;;;;55.08;22.55;;;;;;;-0.40;91.58;99217.66;3466668;28;20053;-46
2021/01/09 02:46:08;;;;;;;48.75;19.70;;;;;;;-0.39;91.60;99214.34;3467775;28;20553;-47
2021/01/09 02:47:50;;;;;;;53.53;22.70;;;;;;;-0.40;91.61;99213.44;3468846;28;20148;-48
2021/01/09 02:49:33;;;;;;;49.28;22.95;;;;;;;-0.40;91.71;99215.97;3467568;28;20049;-46
2021/01/09 02:51:15;;;;;;;51.00;23.80;;;;;;;-0.39;91.76;99214.34;3468515;28;20049;-47
2021/01/09 02:52:56;;;;;;;43.90;19.27;;;;;;;-0.40;91.92;99215.97;3467849;28;20053;-48
2021/01/09 02:54:38;;;;;;;38.38;16.10;;;;;;;-0.39;91.62;99227.06;3467460;28;20428;-47
2021/01/09 02:56:20;;;;;;;52.58;23.77;;;;;;;-0.39;91.86;99222.84;3468662;28;20502;-46
2021/01/09 02:58:02;;;;;;;51.20;21.67;;;;;;;-0.40;91.81;99226.19;3467604;28;20522;-47
2021/01/09 02:59:43;;;;;;;52.72;23.38;;;;;;;-0.39;91.81;99227.94;3467691;28;20053;-48
2021/01/09 03:01:28;;;;;;;46.80;21.23;;;;;;;-0.37;91.91;99235.66;3468402;28;20064;-48
2021/01/09 03:03:11;;;;;;;38.08;17.05;;;;;;;-0.37;91.74;99231.44;3467537;28;20109;-47
2021/01/09 03:04:53;;;;;;;43.70;19.38;;;;;;;-0.37;91.60;99228.03;3468331;28;20045;-46
2021/01/09 03:06:34;;;;;;;41.38;17.55;;;;;;;-0.36;91.85;99232.31;3468741;28;20518;-46
2021/01/09 03:08:17;;;;;;;50.33;20.98;;;;;;;-0.36;91.72;99225.56;3468365;28;20281;-46
2021/01/09 03:09:59;;;;;;;52.35;21.90;;;;;;;-0.35;91.83;99228.97;3468592;28;20045;-46
2021/01/09 03:11:41;;;;;;;52.65;21.25;;;;;;;-0.35;91.73;99226.41;3467141;28;20045;-47
2021/01/09 03:13:23;;;;;;;57.33;22.45;;;;;;;-0.34;91.74;99223.09;3467030;28;20467;-47
2021/01/09 03:15:06;;;;;;;57.05;25.05;;;;;;;-0.36;91.93;99223.00;3468308;28;20061;-48
2021/01/09 03:16:47;;;;;;;48.67;21.13;;;;;;;-0.36;91.71;99225.56;3467716;28;20701;-48
2021/01/09 03:18:29;;;;;;;42.45;19.45;;;;;;;-0.36;91.87;99217.91;3467438;28;20136;-48
2021/01/09 03:20:11;;;;;;;46.97;22.17;;;;;;;-0.35;91.74;99218.78;3468337;28;20060;-47
2021/01/09 03:21:54;;;;;;;44.53;18.52;;;;;;;-0.35;92.00;99223.88;3467989;28;20140;-48
2021/01/09 03:23:36;;;;;;;53.65;23.92;;;;;;;-0.34;91.80;99231.59;3468518;28;20085;-47
2021/01/09 03:25:18;;;;;;;54.47;23.85;;;;;;;-0.34;92.01;99221.41;3467560;28;20057;-46
2021/01/09 03:27:00;;;;;;;48.83;21.85;;;;;;;-0.34;91.65;99221.41;3467296;28;20045;-46
2021/01/09 03:28:41;;;;;;;49.78;21.00;;;;;;;-0.33;91.66;99228.22;3468366;28;20080;-46
2021/01/09 03:30:23;;;;;;;47.15;21.75;;;;;;;-0.33;91.96;99224.81;3467166;28;20041;-46
2021/01/09 03:32:05;;;;;;;54.03;23.08;;;;;;;-0.32;91.91;99229.13;3467982;28;20045;-47
2021/01/09 03:33:47;;;;;;;49.90;23.13;;;;;;;-0.32;92.14;99231.69;3468729;28;20425;-47
2021/01/09 03:35:29;;;;;;;41.15;17.63;;;;;;;-0.32;91.83;99226.56;3470184;28;20437;-48
2021/01/09 03:37:10;;;;;;;53.63;22.13;;;;;;;-0.31;92.25;99227.44;3470545;28;20054;-48
2021/01/09 03:38:53;;;;;;;48.65;21.70;;;;;;;-0.31;92.25;99224.91;3470998;28;20049;-49
2021/01/09 03:40:35;;;;;;;53.78;22.10;;;;;;;-0.31;91.93;99222.34;3470620;28;20053;-48
2021/01/09 03:42:17;;;;;;;54.15;24.05;;;;;;;-0.31;92.26;99225.75;3468963;28;20056;-46
2021/01/09 03:43:58;;;;;;;49.05;21.83;;;;;;;-0.30;92.28;99231.75;3470286;28;20111;-48
2021/01/09 03:45:40;;;;;;;52.78;22.33;;;;;;;-0.30;92.06;99224.13;3469642;28;20103;-48
2021/01/09 03:47:22;;;;;;;42.05;18.90;;;;;;;-0.31;92.37;99228.31;3470333;28;20540;-48
2021/01/09 03:49:03;;;;;;;36.70;15.48;;;;;;;-0.29;91.98;99236.03;3468941;28;20050;-47
2021/01/09 03:50:45;;;;;;;50.55;22.02;;;;;;;-0.29;92.07;99233.47;3469574;28;20057;-47
2021/01/09 03:52:27;;;;;;;45.53;18.42;;;;;;;-0.30;92.14;99226.66;3470277;28;20053;-46
2021/01/09 03:54:09;;;;;;;47.33;21.08;;;;;;;-0.30;92.08;99232.63;3469705;28;20522;-48
2021/01/09 03:55:51;;;;;;;50.63;22.60;;;;;;;-0.29;92.02;99236.03;3470728;28;20081;-46
2021/01/09 03:57:33;;;;;;;52.58;21.67;;;;;;;-0.30;91.96;99235.16;3468949;28;20057;-46
2021/01/09 03:59:14;;;;;;;54.00;23.45;;;;;;;-0.29;92.14;99236.03;3469990;28;20049;-48
2021/01/09 04:00:56;;;;;;;45.88;19.67;;;;;;;-0.29;92.02;99238.59;3470655;28;20053;-48
2021/01/09 04:02:38;;;;;;;56.92;21.90;;;;;;;-0.29;92.55;99236.91;3469590;28;20045;-47
2021/01/09 04:04:20;;;;;;;44.47;19.33;;;;;;;-0.29;92.35;99241.13;3469918;28;20053;-46
2021/01/09 04:06:01;;;;;;;50.20;22.05;;;;;;;-0.29;92.32;99243.69;3469963;28;20049;-45
2021/01/09 04:07:43;;;;;;;53.53;23.67;;;;;;;-0.28;92.47;99240.34;3470048;28;20053;-48
2021/01/09 04:09:25;;;;;;;51.78;21.30;;;;;;;-0.29;92.39;99242.00;3471377;28;20067;-47
2021/01/09 04:11:08;;;;;;;54.33;22.98;;;;;;;-0.27;92.44;99244.63;3469014;28;20050;-46
2021/01/09 04:12:49;;;;;;;51.42;23.13;;;;;;;-0.29;92.37;99239.44;3469514;28;20056;-48
2021/01/09 04:14:31;;;;;;;49.08;21.88;;;;;;;-0.27;92.17;99242.06;3470835;28;20099;-46
2021/01/09 04:16:13;;;;;;;52.40;22.88;;;;;;;-0.28;92.26;99245.44;3470396;28;20046;-48
2021/01/09 04:17:54;;;;;;;49.90;21.42;;;;;;;-0.29;92.14;99249.66;3467782;28;20046;-48
2021/01/09 04:19:36;;;;;;;41.15;17.80;;;;;;;-0.29;92.23;99243.69;3470600;28;20072;-48
2021/01/09 04:21:18;;;;;;;37.85;17.08;;;;;;;-0.27;92.44;99244.63;3469376;28;20215;-47
2021/01/09 04:22:59;;;;;;;41.03;16.83;;;;;;;-0.27;92.20;99260.81;3470630;28;20056;-48
2021/01/09 04:24:41;;;;;;;50.00;21.52;;;;;;;-0.28;92.24;99246.31;3469423;28;20062;-48
2021/01/09 04:26:23;;;;;;;50.40;22.45;;;;;;;-0.27;92.14;99252.28;3469601;28;20070;-47
2021/01/09 04:28:05;;;;;;;48.28;21.08;;;;;;;-0.26;92.18;99247.25;3470099;28;20068;-49
2021/01/09 04:29:46;;;;;;;63.25;24.20;;;;;;;-0.26;92.20;99254.91;3469211;28;20530;-48
2021/01/09 04:31:28;;;;;;;49.33;20.13;;;;;;;-0.26;92.44;99252.34;3469231;28;20108;-49
2021/01/09 04:33:10;;;;;;;56.22;23.70;;;;;;;-0.25;92.34;99250.66;3470052;28;20049;-48
2021/01/09 04:34:51;;;;;;;58.20;24.50;;;;;;;-0.25;92.49;99253.22;3469031;28;20143;-48
2021/01/09 04:36:33;;;;;;;56.15;24.02;;;;;;;-0.25;92.66;99248.13;3469765;28;20080;-47
2021/01/09 04:38:15;;;;;;;51.13;22.08;;;;;;;-0.25;92.57;99253.22;3469333;28;20049;-49
2021/01/09 04:39:57;;;;;;;44.33;19.05;;;;;;;-0.25;92.51;99245.56;3468991;28;20052;-47
2021/01/09 04:41:41;;;;;;;43.65;19.10;;;;;;;-0.26;92.21;99244.72;3469939;28;20069;-49
2021/01/09 04:43:23;;;;;;;52.67;20.23;;;;;;;-0.25;92.37;99250.66;3455857;28;20053;-49
2021/01/09 04:45:06;;;;;;;52.72;21.73;;;;;;;-0.25;92.33;99243.03;3464123;28;20137;-48
2021/01/09 04:46:50;;;;;;;53.95;23.17;;;;;;;-0.25;92.11;99250.66;3470141;28;20057;-48
2021/01/09 04:48:32;;;;;;;50.13;21.65;;;;;;;-0.25;92.24;99246.47;3468794;28;20057;-48
2021/01/09 04:50:16;;;;;;;49.75;21.48;;;;;;;-0.26;92.12;99251.50;3469101;28;20136;-46
2021/01/09 04:51:57;;;;;;;53.57;23.57;;;;;;;-0.25;92.50;99248.13;3469795;28;20080;-46
2021/01/09 04:53:40;;;;;;;51.40;22.45;;;;;;;-0.25;92.10;99255.75;3469310;28;20045;-46
2021/01/09 04:55:23;;;;;;;49.83;20.65;;;;;;;-0.25;92.12;99255.75;3468904;28;20435;-48
2021/01/09 04:57:05;;;;;;;52.25;23.20;;;;;;;-0.24;92.21;99260.06;3469847;28;20418;-47
2021/01/09 04:58:46;;;;;;;49.85;20.95;;;;;;;-0.25;92.53;99265.97;3469404;28;20088;-48
2021/01/09 05:00:29;;;;;;;42.83;19.77;;;;;;;-0.25;92.20;99264.31;3469433;28;20049;-48
2021/01/09 05:02:15;;;;;;;52.58;24.50;;;;;;;-0.25;92.24;99261.75;3469476;28;20053;-48
2021/01/09 05:03:59;;;;;;;57.75;24.50;;;;;;;-0.24;92.31;99265.19;3468991;28;20053;-47
2021/01/09 05:05:41;;;;;;;48.05;21.13;;;;;;;-0.24;92.19;99265.19;3469998;28;20422;-46
2021/01/09 05:07:23;;;;;;;56.00;23.05;;;;;;;-0.24;92.32;99267.72;3457176;28;20077;-46
2021/01/09 05:09:05;;;;;;;54.10;22.45;;;;;;;-0.24;92.29;99268.59;3465708;28;20049;-46
2021/01/09 05:10:49;;;;;;;52.15;22.13;;;;;;;-0.24;92.43;99272.81;3470717;28;20045;-47
2021/01/09 05:12:35;;;;;;;63.28;25.17;;;;;;;-0.23;92.40;99264.38;3469115;28;20053;-48
2021/01/09 05:14:17;;;;;;;53.83;22.40;;;;;;;-0.24;92.14;99271.13;3468901;28;20046;-48
2021/01/09 05:16:00;;;;;;;52.67;24.88;;;;;;;-0.23;92.64;99269.50;3469492;28;20075;-48
2021/01/09 05:17:41;;;;;;;59.33;25.70;;;;;;;-0.23;92.39;99269.50;3468239;28;20080;-46
2021/01/09 05:19:28;;;;;;;48.40;22.25;;;;;;;-0.24;92.74;99276.25;3469601;28;20095;-48
2021/01/09 05:21:10;;;;;;;54.67;23.95;;;;;;;-0.24;92.31;99283.03;3470453;28;20065;-46
2021/01/09 05:22:53;;;;;;;58.15;24.45;;;;;;;-0.25;92.51;99276.16;3468561;28;20510;-46
2021/01/09 05:24:35;;;;;;;56.83;23.38;;;;;;;-0.25;92.44;99271.97;3468815;28;20568;-46
2021/01/09 05:26:17;;;;;;;55.35;23.88;;;;;;;-0.24;92.83;99277.91;3470323;28;20053;-48
2021/01/09 05:28:01;;;;;;;45.58;19.13;;;;;;;-0.25;92.49;99274.50;3468507;28;20092;-48
2021/01/09 05:29:42;;;;;;;53.33;22.67;;;;;;;-0.25;92.89;99279.59;3469035;28;20153;-46
2021/01/09 05:31:25;;;;;;;61.58;26.13;;;;;;;-0.26;92.58;99282.06;3469249;28;20514;-47
2021/01/09 05:33:07;;;;;;;60.78;24.10;;;;;;;-0.25;92.95;99281.25;3469247;28;20136;-48
2021/01/09 05:34:51;;;;;;;55.53;23.50;;;;;;;-0.26;92.85;99287.16;3470116;28;20051;-47
2021/01/09 05:36:33;;;;;;;46.65;20.83;;;;;;;-0.26;92.55;99292.25;3468967;28;20052;-47
2021/01/09 05:38:16;;;;;;;60.22;24.55;;;;;;;-0.27;93.02;99288.84;3468663;28;20140;-46
2021/01/09 05:39:59;;;;;;;52.50;22.92;;;;;;;-0.27;92.72;99293.94;3469256;28;20045;-47
2021/01/09 05:41:44;;;;;;;50.90;22.38;;;;;;;-0.27;92.67;99288.84;3467056;28;20045;-46
2021/01/09 05:43:25;;;;;;;;;;;;;;;-0.26;92.79;99289.72;3467654;28;20430;-46
2021/01/09 05:45:10;;;;;;;53.90;21.15;;;;;;;-0.26;92.85;99294.81;3469323;28;19971;-46
2021/01/09 05:46:52;;;;;;;49.38;21.02;;;;;;;-0.26;92.75;99297.38;3468560;28;20609;-48
2021/01/09 05:48:36;;;;;;;54.72;23.38;;;;;;;-0.25;92.75;99296.53;3468563;28;20502;-49
2021/01/09 05:50:18;;;;;;;60.38;24.40;;;;;;;-0.24;93.04;99296.63;3469455;28;20049;-46
2021/01/09 05:52:00;;;;;;;54.85;23.88;;;;;;;-0.23;92.95;99305.16;3468253;28;20119;-46
2021/01/09 05:53:44;;;;;;;57.17;21.92;;;;;;;-0.23;92.84;99303.50;3469953;28;20049;-47
2021/01/09 05:55:39;;;;;;;53.33;21.23;;;;;;;-0.22;92.55;99304.34;3468374;28;20076;-48
2021/01/09 05:57:27;;;;;;;49.85;22.52;;;;;;;-0.21;92.99;99306.13;3468584;28;20093;-46
2021/01/09 05:59:11;;;;;;;48.90;21.42;;;;;;;-0.21;92.67;99309.53;3469809;28;20077;-48
2021/01/09 06:00:54;;;;;;;41.80;16.75;;;;;;;-0.19;92.76;99307.06;3467740;28;20049;-47
2021/01/09 06:02:55;;;;;;;46.22;21.33;;;;;;;-0.18;92.40;99307.16;3463053;28;20053;-46
2021/01/09 06:04:42;;;;;;;42.15;17.33;;;;;;;-0.17;92.33;99313.13;3468749;28;20053;-47
2021/01/09 06:06:30;;;;;;;50.80;20.67;;;;;;;-0.16;92.23;99318.28;3468772;28;20057;-48
2021/01/09 06:08:15;;;;;;;55.65;22.90;;;;;;;-0.16;92.65;99317.44;3468147;28;20072;-48
2021/01/09 06:10:01;;;;;;;46.60;21.27;;;;;;;-0.18;92.43;99312.25;3469062;28;20049;-48
2021/01/09 06:11:43;;;;;;;54.83;22.10;;;;;;;-0.17;92.38;99310.56;3468399;28;20052;-48
2021/01/09 06:13:30;;;;;;;62.03;25.73;;;;;;;-0.18;92.61;99322.44;3468193;28;20098;-48
2021/01/09 06:15:20;;;;;;;44.75;21.15;;;;;;;-0.19;92.92;99317.25;3469121;28;20430;-48
2021/01/09 06:17:05;;;;;;;51.55;23.73;;;;;;;-0.18;92.56;99327.53;3468560;28;20478;-47
2021/01/09 06:18:47;;;;;;;51.67;21.20;;;;;;;-0.19;92.95;99323.22;3468228;28;20068;-46
2021/01/09 06:20:30;;;;;;;57.45;24.23;;;;;;;-0.18;92.72;99324.13;3469231;28;20050;-48
2021/01/09 06:22:12;;;;;;;57.63;22.52;;;;;;;-0.19;92.79;99330.88;3469069;28;20077;-49
2021/01/09 06:23:54;;;;;;;54.75;22.60;;;;;;;-0.18;92.71;99322.44;3468212;28;20464;-49
2021/01/09 06:25:37;;;;;;;49.10;18.67;;;;;;;-0.18;92.97;99331.78;3468755;28;20568;-49
2021/01/09 06:27:27;;;;;;;55.92;23.55;;;;;;;-0.18;93.12;99331.78;3468521;28;20040;-49
2021/01/09 06:29:19;;;;;;;60.20;25.33;;;;;;;-0.17;92.76;99329.28;3467483;28;20111;-47
2021/01/09 06:31:02;;;;;;;54.22;24.45;;;;;;;-0.16;93.01;99340.38;3469400;28;20167;-47
2021/01/09 06:32:54;;;;;;;43.03;18.35;;;;;;;-0.16;92.88;99338.69;3467910;28;20045;-46
2021/01/09 06:34:39;;;;;;;53.40;23.48;;;;;;;-0.16;92.94;99338.69;3467299;28;20049;-46
2021/01/09 06:36:22;;;;;;;45.35;20.70;;;;;;;-0.16;92.78;99337.81;3469435;28;20502;-49
2021/01/09 06:38:04;;;;;;;48.70;20.95;;;;;;;-0.13;92.68;99340.50;3468525;28;20049;-47
2021/01/09 06:39:46;;;;;;;51.75;23.33;;;;;;;-0.11;92.58;99346.56;3468004;28;20057;-49
2021/01/09 06:41:33;;;;;;;48.47;21.15;;;;;;;-0.10;92.74;99343.22;3468499;28;20578;-49
2021/01/09 06:43:16;;;;;;;49.17;19.75;;;;;;;-0.10;92.54;99348.31;3466632;28;20152;-47
2021/01/09 06:45:01;;;;;;;60.47;24.92;;;;;;;-0.10;92.77;99350.84;3469210;28;20053;-47
2021/01/09 06:46:43;;;;;;;56.17;22.98;;;;;;;-0.09;92.40;99356.84;3468068;28;20064;-46
2021/01/09 06:48:27;;;;;;;57.33;23.85;;;;;;;-0.08;92.64;99345.84;3467948;28;20064;-46
2021/01/09 06:50:31;;;;;;;40.28;18.63;;;;;;;-0.06;92.39;99351.88;3468680;28;20081;-46
2021/01/09 06:52:15;;;;;;;52.85;22.33;;;;;;;-0.06;92.74;99350.25;3468081;28;20518;-47
2021/01/09 06:54:14;;;;;;;;;;;;;;;-0.07;92.53;99348.47;3473554;28;20430;-47
2021/01/09 06:55:56;;;;;;;52.38;20.52;;;;;;;-0.06;92.54;99350.25;3468328;28;20014;-48
2021/01/09 06:57:38;;;;;;;60.25;25.17;;;;;;;-0.06;92.35;99350.25;3468257;28;20064;-47
2021/01/09 06:59:30;;;;;;;42.60;18.55;;;;;;;-0.04;92.74;99356.28;3468576;28;20046;-48
2021/01/09 07:01:22;;;;;;;54.40;24.25;;;;;;;-0.04;92.62;99355.38;3467861;28;20057;-47
2021/01/09 07:03:12;;;;;;;54.95;22.80;;;;;;;-0.04;92.50;99358.84;3454933;28;20050;-47
2021/01/09 07:04:59;;;;;;;49.38;20.60;;;;;;;-0.03;92.78;99354.59;3467232;28;20049;-47
2021/01/09 07:06:57;;;;;;;60.38;24.90;;;;;;;-0.02;92.60;99353.81;3468148;28;20050;-46
2021/01/09 07:08:40;;;;;;;62.95;24.10;;;;;;;-0.04;92.69;99358.84;3455671;28;20057;-46
2021/01/09 07:10:24;;;;;;;55.15;23.75;;;;;;;-0.02;92.58;99356.38;3475096;28;20444;-46
2021/01/09 07:12:06;;;;;;;57.17;25.42;;;;;;;-0.02;92.80;99358.91;3479670;28;20104;-46
2021/01/09 07:13:48;;;;;;;55.75;23.73;;;;;;;-0.02;92.73;99352.13;3480459;28;20080;-46
2021/01/09 07:15:33;;;;;;;46.97;17.55;;;;;;;-0.01;92.38;99363.19;3473300;28;20045;-46
2021/01/09 07:17:15;;;;;;;57.65;24.20;;;;;;;-0.01;92.36;99358.09;3470845;28;20049;-47
2021/01/09 07:18:59;;;;;;;48.90;20.80;;;;;;;-0.00;92.37;99364.97;3470987;28;20049;-46
2021/01/09 07:20:43;;;;;;;54.40;23.70;;;;;;;-0.01;92.76;99361.50;3468887;28;20045;-47
2021/01/09 07:22:27;;;;;;;65.47;27.38;;;;;;;-0.00;92.51;99370.06;3470660;28;20134;-46
2021/01/09 07:24:12;;;;;;;57.00;23.67;;;;;;;0.00;92.53;99368.38;3470657;28;20061;-46
2021/01/09 07:25:55;;;;;;;68.78;24.25;;;;;;;0.01;92.47;99367.59;3472447;28;20111;-47
2021/01/09 07:27:42;;;;;;;;;;;;;;;0.03;92.47;99373.66;3484818;28;20075;-47
2021/01/09 07:29:27;;;;;;;61.72;24.27;;;;;;;0.04;92.34;99374.50;3470545;28;20004;-46
2021/01/09 07:31:10;;;;;;;68.47;25.65;;;;;;;0.04;92.65;99366.84;3470004;28;20461;-45
2021/01/09 07:32:53;;;;;;;53.75;22.48;;;;;;;0.06;92.63;99370.34;3470885;28;20438;-46
2021/01/09 07:34:36;;;;;;;59.95;22.80;;;;;;;0.07;92.21;99377.22;3469309;28;20049;-47
2021/01/09 07:36:25;;;;;;;50.30;20.90;;;;;;;0.07;92.32;99376.34;3470096;28;20045;-47
2021/01/09 07:38:08;;;;;;;55.05;24.00;;;;;;;0.07;92.57;99376.34;3471640;28;20057;-47
2021/01/09 07:39:59;;;;;;;62.22;25.65;;;;;;;0.07;92.27;99377.22;3469702;28;20549;-47
2021/01/09 07:41:41;;;;;;;59.72;22.98;;;;;;;0.09;92.45;99377.31;3469812;28;20053;-47
2021/01/09 07:43:35;;;;;;;53.40;20.60;;;;;;;0.07;92.53;99374.66;3469757;28;20056;-47
2021/01/09 07:45:21;;;;;;;58.50;25.80;;;;;;;0.09;92.47;99374.75;3469658;28;20101;-47
2021/01/09 07:47:05;;;;;;;55.08;21.88;;;;;;;0.10;92.10;99379.94;3473482;28;20057;-46
2021/01/09 07:48:47;;;;;;;60.63;24.50;;;;;;;0.11;92.33;99378.25;3470414;28;20069;-46
2021/01/09 07:50:42;;;;;;;57.70;25.00;;;;;;;0.12;92.33;99380.88;3470523;28;20067;-47
2021/01/09 07:52:24;;;;;;;;;;;;;;;0.13;92.03;99384.31;3470537;28;20077;-47
2021/01/09 07:54:06;;;;;;;52.80;21.90;;;;;;;0.14;92.38;99383.50;3470418;28;19940;-46
2021/01/09 07:55:48;;;;;;;55.97;23.75;;;;;;;0.15;92.38;99380.16;3470380;28;20072;-47
2021/01/09 07:57:32;;;;;;;;;;;;;;;0.15;92.06;99393.75;3470301;28;20049;-48